Skopje-Petrovec, Macedonia

06:11 AM CEST on tetor 25, 2014 (GMT +0200)
Skopje | Change Station
CLOSE
Current Station
Airport
Location: Skopje-Petrovec,
Elevation: 784 ft
Nearby Weather Stations

Elev 784 ft 41.97 °N, 21.65 °E | Updated 11 minutes ago

Light Rain
Shi I Lehte
45 °F
Feels Like 41 °F
N
7
Era e paqendrueshme Era from Perendim

Sot
High -- | Low -- °F
--% Chance of Precip.
Yesterday
High -- | Low -- °F
Precip. -- ne
6:57 AM 5:37 PM
New, 2% visible
Presioni 29.95 ne
Visioni 6.2 milje
Clouds mot i vrenjtur 3600 ft
Ftohtesia E erses 41 °F
Pika E Veses 39 °F
Lageshtira E ajrit 81%
Rainfall 0.00 ne
Snow Depth Not available.
UV 0 out of 12
Pollen Not available.
Air Quality Not available.
Flu Activity Not available.
METAR LWSK 250400Z 28006KT 230V360 9999 -RA OVC036 07/04 Q1014 NOSIG

More Conditions Fewer Conditions

Presioni 29.95 ne
Visioni 6.2 milje
Clouds mot i vrenjtur 3600 ft
Ftohtesia E erses 41 °F
Pika E Veses 39 °F
Lageshtira E ajrit 81%
Rainfall 0.00 ne
Snow Depth Not available.
UV 0 out of 12
Pollen Not available.
Air Quality Not available.
Flu Activity Not available.
METAR LWSK 250400Z 28006KT 230V360 9999 -RA OVC036 07/04 Q1014 NOSIG

More Conditions Fewer Conditions

10-Day Weather Forecast

Almanac

Astronomy

Oct. 25, 2014 Rise Set
Actual Time 6:57 AM CEST 5:37 PM CEST
Civil Twilight 6:28 AM CEST 6:05 PM CEST
Nautical Twilight 5:55 AM CEST 6:38 PM CEST
Astronomical Twilight 5:23 AM CEST 7:10 PM CEST
Moon 8:18 AM CEST 6:45 PM CEST
Length Of Visible Light 11h 37m
Length of Day
10h 40m
Tomorrow will be 2m 35s shorter.
New, 2% of the Moon is Illuminated
Sot
New
Oct 30
First Quarter
Nov 6
Full
Nov 14
Last Quarter
Nov 22
New

Yesterday's Extremes

Country Highs Country Lows

Community

WunderPhotos

Upload Photos

1,764,779 photos uploaded!

Nearby

Snow Depth

Not available.

Earthquake Activity

City Distance Mag. Time & Date
No recent earthquake activity has been reported nearby.
Minimum magnitude displayed is 2.5.

Coastal Water Temperatures

Vend Temperatura
No Stations Reporting

Nearby Weather Stations